SWR92W LSZH-EDDH
Flight info
| Callsign | SWR92W |
|---|---|
| Flight time | 1h 16m |
| Altitude | 37000 |
| Route | DEGES Z1 ETAGO Z3 LBU N851 OSBIT P605 NOLGO NOLGO3P |
| Aircraft | A321/M-SDE3FGHIRWY/LB1 |
Departure
| Time | 2026-04-26 14:51 |
|---|---|
| Airport | Zürich Airport (LSZH) |
Arrival
| Time | 2026-04-26 16:07 |
|---|---|
| Airport | Hamburg Helmut Schmidt Airport (EDDH) |
| Time | Latitude | Longitude | Altitude | Speed | Heading |
|---|---|---|---|---|---|
| 2026-04-26 14:02 | 47.45597 | 8.55536 | 1407 ft | 0 kts | 6° |
| 2026-04-26 14:45 | 47.45599 | 8.55537 | 1404 ft | 2 kts | 6° |
| 2026-04-26 14:45 | 47.45656 | 8.55560 | 1408 ft | 7 kts | 56° |
| 2026-04-26 14:45 | 47.45655 | 8.55623 | 1404 ft | 7 kts | 96° |
| 2026-04-26 14:46 | 47.45651 | 8.55690 | 1405 ft | 8 kts | 95° |
| 2026-04-26 14:46 | 47.45646 | 8.55760 | 1408 ft | 5 kts | 96° |
| 2026-04-26 14:46 | 47.45641 | 8.55833 | 1410 ft | 11 kts | 96° |
| 2026-04-26 14:46 | 47.45631 | 8.55963 | 1412 ft | 12 kts | 96° |
| 2026-04-26 14:47 | 47.45623 | 8.56077 | 1411 ft | 10 kts | 96° |
| 2026-04-26 14:47 | 47.45615 | 8.56182 | 1416 ft | 12 kts | 96° |
| 2026-04-26 14:47 | 47.45605 | 8.56323 | 1413 ft | 15 kts | 96° |
| 2026-04-26 14:47 | 47.45594 | 8.56475 | 1414 ft | 14 kts | 96° |
| 2026-04-26 14:48 | 47.45585 | 8.56608 | 1417 ft | 12 kts | 96° |
| 2026-04-26 14:48 | 47.45578 | 8.56711 | 1423 ft | 9 kts | 96° |
| 2026-04-26 14:48 | 47.45571 | 8.56806 | 1420 ft | 10 kts | 96° |
| 2026-04-26 14:48 | 47.45563 | 8.56931 | 1420 ft | 11 kts | 95° |
| 2026-04-26 14:49 | 47.45604 | 8.57016 | 1424 ft | 10 kts | 14° |
| 2026-04-26 14:49 | 47.45658 | 8.57011 | 1425 ft | 6 kts | 316° |
| 2026-04-26 14:49 | 47.45666 | 8.56961 | 1424 ft | 0 kts | 275° |
| 2026-04-26 14:50 | 47.45685 | 8.56703 | 1419 ft | 65 kts | 276° |
| 2026-04-26 14:50 | 47.45757 | 8.55677 | 1406 ft | 133 kts | 276° |
| 2026-04-26 14:51 | 47.45872 | 8.54065 | 1506 ft | 172 kts | 276° |
| 2026-04-26 14:51 | 47.45997 | 8.52345 | 2244 ft | 167 kts | 276° |
| 2026-04-26 14:51 | 47.46116 | 8.50640 | 2969 ft | 167 kts | 281° |
| 2026-04-26 14:51 | 47.46235 | 8.48931 | 3586 ft | 168 kts | 277° |
| 2026-04-26 14:52 | 47.46128 | 8.47797 | 3968 ft | 171 kts | 246° |
| 2026-04-26 14:52 | 47.45458 | 8.46335 | 4446 ft | 174 kts | 237° |
| 2026-04-26 14:52 | 47.44857 | 8.44731 | 4824 ft | 186 kts | 243° |
| 2026-04-26 14:52 | 47.44231 | 8.42959 | 5136 ft | 201 kts | 243° |
| 2026-04-26 14:53 | 47.43559 | 8.41042 | 5300 ft | 222 kts | 243° |
| 2026-04-26 14:53 | 47.42821 | 8.38949 | 5589 ft | 233 kts | 240° |
| 2026-04-26 14:53 | 47.41638 | 8.37322 | 6024 ft | 239 kts | 203° |
| 2026-04-26 14:53 | 47.40030 | 8.36986 | 6706 ft | 236 kts | 170° |
| 2026-04-26 14:54 | 47.38572 | 8.38006 | 7303 ft | 235 kts | 135° |
| 2026-04-26 14:54 | 47.37762 | 8.40073 | 7866 ft | 238 kts | 102° |
| 2026-04-26 14:54 | 47.37880 | 8.42491 | 8378 ft | 242 kts | 67° |
| 2026-04-26 14:54 | 47.38899 | 8.44459 | 8953 ft | 244 kts | 43° |
| 2026-04-26 14:55 | 47.40131 | 8.46209 | 9499 ft | 248 kts | 44° |
| 2026-04-26 14:55 | 47.41363 | 8.48012 | 10075 ft | 251 kts | 45° |
| 2026-04-26 14:55 | 47.42605 | 8.49848 | 10611 ft | 253 kts | 44° |
| 2026-04-26 14:55 | 47.43859 | 8.51702 | 11137 ft | 257 kts | 44° |
| 2026-04-26 14:56 | 47.45065 | 8.53594 | 11657 ft | 259 kts | 49° |
| 2026-04-26 14:56 | 47.46041 | 8.55841 | 12148 ft | 266 kts | 67° |
| 2026-04-26 14:56 | 47.46366 | 8.58598 | 12286 ft | 285 kts | 94° |
| 2026-04-26 14:56 | 47.46154 | 8.61632 | 12442 ft | 308 kts | 97° |
| 2026-04-26 14:57 | 47.45887 | 8.64892 | 12623 ft | 331 kts | 97° |
| 2026-04-26 14:57 | 47.45593 | 8.68384 | 12760 ft | 354 kts | 97° |
| 2026-04-26 14:57 | 47.45281 | 8.72088 | 13038 ft | 370 kts | 97° |
| 2026-04-26 14:57 | 47.44963 | 8.75884 | 13682 ft | 374 kts | 97° |
| 2026-04-26 14:58 | 47.44646 | 8.79716 | 14329 ft | 378 kts | 97° |
| 2026-04-26 14:58 | 47.44329 | 8.83593 | 14922 ft | 383 kts | 97° |
| 2026-04-26 14:58 | 47.44033 | 8.87520 | 15529 ft | 386 kts | 92° |
| 2026-04-26 14:58 | 47.44389 | 8.91429 | 16087 ft | 388 kts | 68° |
| 2026-04-26 14:59 | 47.45796 | 8.94788 | 16648 ft | 387 kts | 43° |
| 2026-04-26 14:59 | 47.48007 | 8.96986 | 17214 ft | 384 kts | 18° |
| 2026-04-26 14:59 | 47.50608 | 8.97647 | 17782 ft | 380 kts | 356° |
| 2026-04-26 14:59 | 47.52355 | 8.97472 | 18178 ft | 381 kts | 353° |
| 2026-04-26 15:00 | 47.55894 | 8.98085 | 18876 ft | 392 kts | 17° |
| 2026-04-26 15:00 | 47.58375 | 8.99814 | 19363 ft | 397 kts | 25° |
| 2026-04-26 15:00 | 47.60834 | 9.01730 | 19855 ft | 400 kts | 25° |
| 2026-04-26 15:00 | 47.63301 | 9.03675 | 20339 ft | 404 kts | 25° |
| 2026-04-26 15:01 | 47.65790 | 9.05647 | 20806 ft | 407 kts | 25° |
| 2026-04-26 15:01 | 47.68303 | 9.07640 | 21265 ft | 411 kts | 25° |
| 2026-04-26 15:01 | 47.70836 | 9.09646 | 21716 ft | 415 kts | 25° |
| 2026-04-26 15:01 | 47.73393 | 9.11666 | 22187 ft | 418 kts | 25° |
| 2026-04-26 15:02 | 47.75972 | 9.13699 | 22649 ft | 421 kts | 25° |
| 2026-04-26 15:02 | 47.78567 | 9.15746 | 23093 ft | 424 kts | 25° |
| 2026-04-26 15:02 | 47.81186 | 9.17818 | 23539 ft | 428 kts | 25° |
| 2026-04-26 15:02 | 47.83819 | 9.19910 | 23936 ft | 431 kts | 25° |
| 2026-04-26 15:03 | 47.86471 | 9.22023 | 24325 ft | 434 kts | 25° |
| 2026-04-26 15:03 | 47.89138 | 9.24149 | 24708 ft | 436 kts | 25° |
| 2026-04-26 15:03 | 47.91820 | 9.26285 | 25091 ft | 439 kts | 25° |
| 2026-04-26 15:03 | 47.94521 | 9.28436 | 25466 ft | 441 kts | 25° |
| 2026-04-26 15:04 | 47.97232 | 9.30597 | 25842 ft | 443 kts | 25° |
| 2026-04-26 15:04 | 47.99959 | 9.32773 | 26216 ft | 445 kts | 25° |
| 2026-04-26 15:04 | 48.02696 | 9.34964 | 26582 ft | 448 kts | 25° |
| 2026-04-26 15:04 | 48.05335 | 9.37082 | 26933 ft | 450 kts | 25° |
| 2026-04-26 15:05 | 48.08099 | 9.39302 | 27314 ft | 452 kts | 25° |
| 2026-04-26 15:05 | 48.09972 | 9.40805 | 27553 ft | 454 kts | 25° |
| 2026-04-26 15:05 | 48.13714 | 9.43668 | 27911 ft | 457 kts | 20° |
| 2026-04-26 15:05 | 48.16719 | 9.45203 | 28208 ft | 457 kts | 11° |
| 2026-04-26 15:06 | 48.19839 | 9.46040 | 28518 ft | 455 kts | 2° |
| 2026-04-26 15:06 | 48.22996 | 9.46197 | 28818 ft | 455 kts | 356° |
| 2026-04-26 15:06 | 48.26172 | 9.46183 | 29140 ft | 457 kts | 356° |
| 2026-04-26 15:06 | 48.29354 | 9.46183 | 29554 ft | 458 kts | 357° |
| 2026-04-26 15:07 | 48.35742 | 9.46203 | 30253 ft | 460 kts | 357° |
| 2026-04-26 15:07 | 48.38942 | 9.46212 | 30612 ft | 460 kts | 357° |
| 2026-04-26 15:07 | 48.42137 | 9.46214 | 31008 ft | 458 kts | 356° |
| 2026-04-26 15:08 | 48.45321 | 9.46214 | 31422 ft | 457 kts | 357° |
| 2026-04-26 15:08 | 48.48496 | 9.46218 | 31832 ft | 455 kts | 357° |
| 2026-04-26 15:08 | 48.51653 | 9.46226 | 32244 ft | 454 kts | 357° |
| 2026-04-26 15:08 | 48.54808 | 9.46233 | 32656 ft | 452 kts | 357° |
| 2026-04-26 15:09 | 48.57953 | 9.46655 | 33059 ft | 455 kts | 5° |
| 2026-04-26 15:09 | 48.61070 | 9.47354 | 33485 ft | 453 kts | 5° |
| 2026-04-26 15:09 | 48.64191 | 9.48059 | 33901 ft | 452 kts | 5° |
| 2026-04-26 15:09 | 48.67294 | 9.48765 | 34300 ft | 450 kts | 5° |
| 2026-04-26 15:10 | 48.70386 | 9.49469 | 34649 ft | 449 kts | 5° |
| 2026-04-26 15:10 | 48.72429 | 9.49938 | 34872 ft | 448 kts | 5° |
| 2026-04-26 15:10 | 48.76550 | 9.50852 | 35303 ft | 447 kts | 5° |
| 2026-04-26 15:10 | 48.79625 | 9.51493 | 35620 ft | 446 kts | 5° |
| 2026-04-26 15:11 | 48.82696 | 9.52120 | 35932 ft | 445 kts | 5° |
| 2026-04-26 15:11 | 48.85760 | 9.52745 | 36237 ft | 444 kts | 5° |
| 2026-04-26 15:11 | 48.88821 | 9.53375 | 36542 ft | 444 kts | 5° |
| 2026-04-26 15:11 | 48.91877 | 9.54011 | 36843 ft | 443 kts | 5° |
| 2026-04-26 15:12 | 48.94927 | 9.54652 | 37128 ft | 442 kts | 5° |
| 2026-04-26 15:12 | 48.97785 | 9.55259 | 37225 ft | 441 kts | 5° |
| 2026-04-26 15:12 | 49.03853 | 9.56552 | 37239 ft | 440 kts | 5° |
| 2026-04-26 15:13 | 49.09911 | 9.57839 | 37244 ft | 439 kts | 5° |
| 2026-04-26 15:13 | 49.15956 | 9.59119 | 37243 ft | 438 kts | 5° |
| 2026-04-26 15:14 | 49.21992 | 9.60399 | 37239 ft | 438 kts | 5° |
| 2026-04-26 15:14 | 49.28033 | 9.61684 | 37243 ft | 438 kts | 5° |
| 2026-04-26 15:15 | 49.34074 | 9.62980 | 37252 ft | 439 kts | 5° |
| 2026-04-26 15:15 | 49.40077 | 9.64270 | 37265 ft | 439 kts | 5° |
| 2026-04-26 15:16 | 49.46160 | 9.65583 | 37266 ft | 438 kts | 5° |
| 2026-04-26 15:16 | 49.52163 | 9.66879 | 37266 ft | 438 kts | 5° |
| 2026-04-26 15:17 | 49.57223 | 9.67967 | 37282 ft | 438 kts | 5° |
| 2026-04-26 15:17 | 49.64244 | 9.69492 | 37278 ft | 438 kts | 5° |
| 2026-04-26 15:18 | 49.70279 | 9.70804 | 37279 ft | 438 kts | 5° |
| 2026-04-26 15:18 | 49.76316 | 9.72092 | 37281 ft | 438 kts | 4° |
| 2026-04-26 15:19 | 49.82357 | 9.73295 | 37284 ft | 438 kts | 4° |
| 2026-04-26 15:19 | 49.88391 | 9.74502 | 37285 ft | 438 kts | 4° |
| 2026-04-26 15:20 | 49.94436 | 9.75727 | 37282 ft | 438 kts | 4° |
| 2026-04-26 15:20 | 50.00473 | 9.76956 | 37281 ft | 438 kts | 4° |
| 2026-04-26 15:21 | 50.06512 | 9.78135 | 37293 ft | 436 kts | 360° |
| 2026-04-26 15:21 | 50.12529 | 9.77771 | 37286 ft | 433 kts | 353° |
| 2026-04-26 15:22 | 50.18535 | 9.77155 | 37282 ft | 433 kts | 353° |
| 2026-04-26 15:22 | 50.24544 | 9.76549 | 37297 ft | 433 kts | 353° |
| 2026-04-26 15:23 | 50.30549 | 9.75952 | 37292 ft | 433 kts | 353° |
| 2026-04-26 15:23 | 50.36560 | 9.75347 | 37288 ft | 433 kts | 353° |
| 2026-04-26 15:24 | 50.42570 | 9.74737 | 37275 ft | 432 kts | 353° |
| 2026-04-26 15:24 | 50.48572 | 9.74126 | 37301 ft | 432 kts | 353° |
| 2026-04-26 15:25 | 50.53555 | 9.73619 | 37301 ft | 432 kts | 353° |
| 2026-04-26 15:25 | 50.60560 | 9.72907 | 37296 ft | 431 kts | 353° |
| 2026-04-26 15:26 | 50.66543 | 9.72287 | 37297 ft | 431 kts | 353° |
| 2026-04-26 15:26 | 50.72530 | 9.71670 | 37296 ft | 431 kts | 353° |
| 2026-04-26 15:27 | 50.78472 | 9.71054 | 37297 ft | 431 kts | 353° |
| 2026-04-26 15:27 | 50.84452 | 9.70433 | 37297 ft | 431 kts | 353° |
| 2026-04-26 15:28 | 50.90436 | 9.69900 | 37295 ft | 431 kts | 355° |
| 2026-04-26 15:28 | 50.96438 | 9.69721 | 37307 ft | 432 kts | 356° |
| 2026-04-26 15:29 | 51.02451 | 9.69646 | 37303 ft | 432 kts | 356° |
| 2026-04-26 15:30 | 51.14455 | 9.69301 | 37299 ft | 431 kts | 356° |
| 2026-04-26 15:30 | 51.20461 | 9.69148 | 37310 ft | 433 kts | 360° |
| 2026-04-26 15:31 | 51.29474 | 9.70559 | 37306 ft | 434 kts | 2° |
| 2026-04-26 15:32 | 51.36505 | 9.71693 | 37310 ft | 434 kts | 2° |
| 2026-04-26 15:32 | 51.44510 | 9.73009 | 37318 ft | 435 kts | 2° |
| 2026-04-26 15:33 | 51.50504 | 9.74504 | 37309 ft | 436 kts | 6° |
| 2026-04-26 15:33 | 51.56491 | 9.76092 | 37302 ft | 436 kts | 6° |
| 2026-04-26 15:34 | 51.62488 | 9.77623 | 37310 ft | 436 kts | 5° |
| 2026-04-26 15:34 | 51.68481 | 9.79139 | 37318 ft | 436 kts | 5° |
| 2026-04-26 15:35 | 51.74481 | 9.80667 | 37321 ft | 437 kts | 5° |
| 2026-04-26 15:35 | 51.80486 | 9.82202 | 37319 ft | 437 kts | 5° |
| 2026-04-26 15:36 | 51.86482 | 9.83743 | 37313 ft | 436 kts | 5° |
| 2026-04-26 15:36 | 51.92478 | 9.85288 | 37325 ft | 436 kts | 5° |
| 2026-04-26 15:37 | 51.98479 | 9.86844 | 37077 ft | 437 kts | 5° |
| 2026-04-26 15:37 | 52.01476 | 9.87618 | 36812 ft | 436 kts | 5° |
| 2026-04-26 15:37 | 52.04479 | 9.88394 | 36549 ft | 437 kts | 5° |
| 2026-04-26 15:38 | 52.07471 | 9.89174 | 36027 ft | 436 kts | 5° |
| 2026-04-26 15:38 | 52.10469 | 9.89958 | 35350 ft | 437 kts | 5° |
| 2026-04-26 15:38 | 52.12461 | 9.90478 | 34859 ft | 439 kts | 5° |
| 2026-04-26 15:38 | 52.15501 | 9.91273 | 33946 ft | 446 kts | 5° |
| 2026-04-26 15:39 | 52.18585 | 9.92079 | 32997 ft | 450 kts | 5° |
| 2026-04-26 15:39 | 52.21694 | 9.92893 | 31839 ft | 452 kts | 5° |
| 2026-04-26 15:39 | 52.24743 | 9.93698 | 31279 ft | 438 kts | 5° |
| 2026-04-26 15:39 | 52.26726 | 9.94219 | 30898 ft | 436 kts | 5° |
| 2026-04-26 15:40 | 52.30727 | 9.95263 | 30075 ft | 433 kts | 5° |
| 2026-04-26 15:40 | 52.33695 | 9.96038 | 29478 ft | 430 kts | 5° |
| 2026-04-26 15:40 | 52.36643 | 9.96830 | 28709 ft | 431 kts | 5° |
| 2026-04-26 15:40 | 52.39571 | 9.97665 | 28176 ft | 426 kts | 6° |
| 2026-04-26 15:41 | 52.42478 | 9.98529 | 27606 ft | 422 kts | 6° |
| 2026-04-26 15:41 | 52.45353 | 9.99393 | 27048 ft | 419 kts | 6° |
| 2026-04-26 15:41 | 52.48198 | 10.00248 | 26517 ft | 415 kts | 6° |
| 2026-04-26 15:41 | 52.51012 | 10.01085 | 25981 ft | 412 kts | 6° |
| 2026-04-26 15:42 | 52.53818 | 10.01918 | 25482 ft | 408 kts | 6° |
| 2026-04-26 15:42 | 52.56612 | 10.02745 | 25284 ft | 408 kts | 6° |
| 2026-04-26 15:42 | 52.59404 | 10.03564 | 25311 ft | 408 kts | 6° |
| 2026-04-26 15:42 | 52.62190 | 10.04378 | 25300 ft | 406 kts | 6° |
| 2026-04-26 15:43 | 52.64972 | 10.05193 | 25302 ft | 406 kts | 6° |
| 2026-04-26 15:43 | 52.67754 | 10.06006 | 25299 ft | 405 kts | 6° |
| 2026-04-26 15:43 | 52.73241 | 10.07632 | 24364 ft | 397 kts | 6° |
| 2026-04-26 15:44 | 52.75949 | 10.08440 | 23853 ft | 394 kts | 6° |
| 2026-04-26 15:44 | 52.81303 | 10.10022 | 22682 ft | 387 kts | 6° |
| 2026-04-26 15:44 | 52.83909 | 10.10792 | 22143 ft | 384 kts | 6° |
| 2026-04-26 15:45 | 52.89120 | 10.12291 | 21052 ft | 375 kts | 1° |
| 2026-04-26 15:45 | 52.91704 | 10.12342 | 20516 ft | 369 kts | 355° |
| 2026-04-26 15:46 | 52.96779 | 10.12077 | 19789 ft | 355 kts | 354° |
| 2026-04-26 15:46 | 52.99205 | 10.11952 | 19655 ft | 343 kts | 354° |
| 2026-04-26 15:46 | 53.01545 | 10.11840 | 19542 ft | 330 kts | 354° |
| 2026-04-26 15:46 | 53.03079 | 10.11771 | 19412 ft | 324 kts | 354° |
| 2026-04-26 15:47 | 53.06034 | 10.11641 | 18972 ft | 319 kts | 354° |
| 2026-04-26 15:47 | 53.10442 | 10.11445 | 18165 ft | 315 kts | 354° |
| 2026-04-26 15:47 | 53.12624 | 10.11343 | 17753 ft | 313 kts | 354° |
| 2026-04-26 15:48 | 53.14796 | 10.11236 | 17354 ft | 311 kts | 354° |
| 2026-04-26 15:48 | 53.16952 | 10.11124 | 16962 ft | 309 kts | 354° |
| 2026-04-26 15:48 | 53.19093 | 10.11007 | 16574 ft | 307 kts | 354° |
| 2026-04-26 15:48 | 53.21220 | 10.10886 | 16183 ft | 305 kts | 354° |
| 2026-04-26 15:49 | 53.23337 | 10.10760 | 15805 ft | 303 kts | 354° |
| 2026-04-26 15:49 | 53.25439 | 10.10629 | 15443 ft | 301 kts | 354° |
| 2026-04-26 15:49 | 53.27526 | 10.10493 | 15083 ft | 300 kts | 354° |
| 2026-04-26 15:49 | 53.29606 | 10.10353 | 14726 ft | 298 kts | 354° |
| 2026-04-26 15:50 | 53.31642 | 10.10211 | 14391 ft | 296 kts | 354° |
| 2026-04-26 15:50 | 53.33695 | 10.10066 | 14065 ft | 294 kts | 354° |
| 2026-04-26 15:50 | 53.35728 | 10.09925 | 13696 ft | 291 kts | 354° |
| 2026-04-26 15:50 | 53.37745 | 10.09782 | 13320 ft | 289 kts | 354° |
| 2026-04-26 15:51 | 53.39747 | 10.09634 | 12939 ft | 287 kts | 354° |
| 2026-04-26 15:51 | 53.41736 | 10.09481 | 12573 ft | 285 kts | 354° |
| 2026-04-26 15:51 | 53.43710 | 10.09324 | 12208 ft | 283 kts | 354° |
| 2026-04-26 15:51 | 53.45673 | 10.09163 | 11855 ft | 281 kts | 354° |
| 2026-04-26 15:52 | 53.47619 | 10.08999 | 11595 ft | 276 kts | 354° |
| 2026-04-26 15:52 | 53.49500 | 10.08839 | 11476 ft | 266 kts | 354° |
| 2026-04-26 15:52 | 53.51313 | 10.08757 | 11353 ft | 257 kts | 3° |
| 2026-04-26 15:52 | 53.52445 | 10.09251 | 11287 ft | 254 kts | 23° |
| 2026-04-26 15:53 | 53.54166 | 10.11971 | 11301 ft | 262 kts | 51° |
| 2026-04-26 15:53 | 53.55158 | 10.14549 | 11230 ft | 262 kts | 54° |
| 2026-04-26 15:53 | 53.56110 | 10.17145 | 10898 ft | 260 kts | 54° |
| 2026-04-26 15:53 | 53.57049 | 10.19741 | 10592 ft | 259 kts | 54° |
| 2026-04-26 15:54 | 53.57974 | 10.22326 | 10293 ft | 257 kts | 54° |
| 2026-04-26 15:54 | 53.59025 | 10.24698 | 9961 ft | 249 kts | 39° |
| 2026-04-26 15:54 | 53.60325 | 10.26605 | 9604 ft | 247 kts | 35° |
| 2026-04-26 15:54 | 53.61659 | 10.28420 | 9247 ft | 246 kts | 34° |
| 2026-04-26 15:55 | 53.62997 | 10.30209 | 8861 ft | 244 kts | 34° |
| 2026-04-26 15:55 | 53.64331 | 10.31979 | 8354 ft | 244 kts | 34° |
| 2026-04-26 15:55 | 53.65669 | 10.33732 | 7878 ft | 243 kts | 34° |
| 2026-04-26 15:55 | 53.66990 | 10.35445 | 7623 ft | 233 kts | 34° |
| 2026-04-26 15:56 | 53.68229 | 10.37051 | 7318 ft | 221 kts | 34° |
| 2026-04-26 15:56 | 53.69445 | 10.38617 | 6802 ft | 219 kts | 34° |
| 2026-04-26 15:56 | 53.70661 | 10.40163 | 6256 ft | 219 kts | 34° |
| 2026-04-26 15:56 | 53.71881 | 10.41692 | 5828 ft | 218 kts | 34° |
| 2026-04-26 15:57 | 53.73101 | 10.43213 | 5514 ft | 217 kts | 35° |
| 2026-04-26 15:57 | 53.74297 | 10.44687 | 5195 ft | 215 kts | 34° |
| 2026-04-26 15:57 | 53.75507 | 10.46172 | 4892 ft | 215 kts | 34° |
| 2026-04-26 15:57 | 53.76322 | 10.47175 | 4703 ft | 214 kts | 34° |
| 2026-04-26 15:58 | 53.77911 | 10.49114 | 4315 ft | 212 kts | 34° |
| 2026-04-26 15:58 | 53.79106 | 10.50557 | 4049 ft | 210 kts | 34° |
| 2026-04-26 15:58 | 53.80292 | 10.52006 | 4008 ft | 211 kts | 33° |
| 2026-04-26 15:58 | 53.81630 | 10.52933 | 4006 ft | 209 kts | 1° |
| 2026-04-26 15:59 | 53.83012 | 10.52410 | 4012 ft | 205 kts | 331° |
| 2026-04-26 15:59 | 53.84139 | 10.50960 | 4015 ft | 204 kts | 310° |
| 2026-04-26 15:59 | 53.84891 | 10.48944 | 4010 ft | 202 kts | 291° |
| 2026-04-26 15:59 | 53.85176 | 10.46639 | 4005 ft | 201 kts | 271° |
| 2026-04-26 16:00 | 53.84968 | 10.44308 | 4006 ft | 202 kts | 251° |
| 2026-04-26 16:00 | 53.84276 | 10.42237 | 4008 ft | 203 kts | 231° |
| 2026-04-26 16:00 | 53.83378 | 10.40398 | 4006 ft | 203 kts | 232° |
| 2026-04-26 16:00 | 53.82480 | 10.38547 | 4009 ft | 203 kts | 232° |
| 2026-04-26 16:01 | 53.81585 | 10.36702 | 4010 ft | 203 kts | 232° |
| 2026-04-26 16:01 | 53.80691 | 10.34864 | 4005 ft | 202 kts | 232° |
| 2026-04-26 16:01 | 53.79796 | 10.33025 | 3998 ft | 203 kts | 232° |
| 2026-04-26 16:01 | 53.78900 | 10.31184 | 4009 ft | 203 kts | 231° |
| 2026-04-26 16:02 | 53.77997 | 10.29331 | 4021 ft | 204 kts | 231° |
| 2026-04-26 16:02 | 53.77096 | 10.27484 | 4009 ft | 204 kts | 231° |
| 2026-04-26 16:02 | 53.76191 | 10.25630 | 3913 ft | 204 kts | 231° |
| 2026-04-26 16:02 | 53.75581 | 10.24380 | 3766 ft | 205 kts | 231° |
| 2026-04-26 16:03 | 53.74381 | 10.21928 | 3413 ft | 202 kts | 231° |
| 2026-04-26 16:03 | 53.73500 | 10.20133 | 3125 ft | 194 kts | 231° |
| 2026-04-26 16:03 | 53.72664 | 10.18419 | 2869 ft | 185 kts | 232° |
| 2026-04-26 16:03 | 53.71863 | 10.16779 | 2615 ft | 177 kts | 232° |
| 2026-04-26 16:04 | 53.71085 | 10.15198 | 2393 ft | 174 kts | 232° |
| 2026-04-26 16:04 | 53.70323 | 10.13639 | 2149 ft | 170 kts | 232° |
| 2026-04-26 16:04 | 53.69564 | 10.12089 | 1914 ft | 171 kts | 232° |
| 2026-04-26 16:04 | 53.68819 | 10.10574 | 1742 ft | 161 kts | 232° |
| 2026-04-26 16:05 | 53.68146 | 10.09209 | 1480 ft | 144 kts | 232° |
| 2026-04-26 16:05 | 53.67519 | 10.07932 | 1272 ft | 141 kts | 232° |
| 2026-04-26 16:05 | 53.66896 | 10.06667 | 1107 ft | 141 kts | 231° |
| 2026-04-26 16:05 | 53.66277 | 10.05406 | 932 ft | 139 kts | 232° |
| 2026-04-26 16:06 | 53.65657 | 10.04144 | 732 ft | 140 kts | 232° |
| 2026-04-26 16:06 | 53.65033 | 10.02873 | 551 ft | 142 kts | 232° |
| 2026-04-26 16:06 | 53.64401 | 10.01593 | 359 ft | 142 kts | 232° |
| 2026-04-26 16:06 | 53.63773 | 10.00321 | 156 ft | 139 kts | 232° |
| 2026-04-26 16:07 | 53.63169 | 9.99111 | 48 ft | 125 kts | 233° |
| 2026-04-26 16:07 | 53.62691 | 9.98124 | 42 ft | 85 kts | 230° |
| 2026-04-26 16:07 | 53.62466 | 9.97800 | 40 ft | 26 kts | 160° |
| 2026-04-26 16:07 | 53.62436 | 9.97976 | 43 ft | 13 kts | 80° |
| 2026-04-26 16:08 | 53.62452 | 9.98125 | 47 ft | 13 kts | 79° |
| 2026-04-26 16:08 | 53.62463 | 9.98219 | 47 ft | 12 kts | 79° |
| 2026-04-26 16:08 | 53.62484 | 9.98401 | 47 ft | 11 kts | 79° |
| 2026-04-26 16:08 | 53.62499 | 9.98532 | 47 ft | 12 kts | 79° |
| 2026-04-26 16:09 | 53.62516 | 9.98683 | 47 ft | 14 kts | 79° |
| 2026-04-26 16:09 | 53.62535 | 9.98855 | 47 ft | 15 kts | 79° |
| 2026-04-26 16:09 | 53.62555 | 9.99023 | 47 ft | 14 kts | 79° |
| 2026-04-26 16:09 | 53.62573 | 9.99186 | 47 ft | 14 kts | 79° |
| 2026-04-26 16:10 | 53.62591 | 9.99341 | 47 ft | 13 kts | 79° |
| 2026-04-26 16:10 | 53.62608 | 9.99491 | 47 ft | 13 kts | 79° |
| 2026-04-26 16:10 | 53.62624 | 9.99636 | 45 ft | 13 kts | 79° |
| 2026-04-26 16:10 | 53.62650 | 9.99800 | 46 ft | 14 kts | 58° |
| 2026-04-26 16:11 | 53.62728 | 9.99891 | 46 ft | 13 kts | 29° |
| 2026-04-26 16:11 | 53.62784 | 9.99942 | 47 ft | 7 kts | 28° |
| 2026-04-26 16:11 | 53.62826 | 9.99983 | 48 ft | 9 kts | 33° |
| 2026-04-26 16:11 | 53.62874 | 10.00049 | 48 ft | 10 kts | 39° |
| 2026-04-26 16:12 | 53.62942 | 10.00128 | 48 ft | 11 kts | 40° |
| 2026-04-26 16:12 | 53.62941 | 10.00220 | 48 ft | 6 kts | 108° |
| 2026-04-26 16:12 | 53.62931 | 10.00266 | 48 ft | 2 kts | 108° |
| 2026-04-26 16:13 | 53.62930 | 10.00274 | 48 ft | 1 kts | 108° |
| 2026-04-26 16:13 | 53.62929 | 10.00279 | 48 ft | 0 kts | 108° |
| 2026-04-26 16:13 | 53.62928 | 10.00282 | 48 ft | 0 kts | 108° |
| 2026-04-26 16:13 | 53.62928 | 10.00284 | 48 ft | 0 kts | 108° |